createdAt,value
2019-03-13T00:00:40.897Z,11.75
2019-03-13T00:03:10.928Z,13.05
2019-03-13T00:05:37.722Z,11.30
2019-03-13T00:08:05.158Z,9.08
2019-03-13T00:10:32.677Z,8.18
2019-03-13T00:12:59.499Z,9.18
2019-03-13T00:15:26.523Z,19.55
2019-03-13T00:17:53.443Z,17.70
2019-03-13T00:20:20.288Z,8.75
2019-03-13T00:22:52.158Z,5.65
2019-03-13T00:25:20.992Z,5.55
2019-03-13T00:27:50.125Z,6.50
2019-03-13T00:30:17.884Z,6.60
2019-03-13T00:32:44.801Z,5.62
2019-03-13T00:35:12.043Z,9.55
2019-03-13T00:37:43.881Z,9.08
2019-03-13T00:40:22.695Z,8.65
2019-03-13T00:42:49.949Z,8.93
2019-03-13T00:45:18.326Z,8.20
2019-03-13T00:47:46.763Z,10.75
2019-03-13T00:50:20.670Z,9.90
2019-03-13T00:52:51.369Z,10.03
2019-03-13T00:55:20.042Z,8.18
2019-03-13T00:57:46.910Z,11.28
2019-03-13T01:00:16.037Z,9.60
2019-03-13T01:02:48.307Z,8.63
2019-03-13T01:05:21.578Z,8.05
2019-03-13T01:07:49.724Z,8.58
2019-03-13T01:10:17.477Z,8.53
2019-03-13T01:12:45.674Z,5.45
2019-03-13T01:15:13.106Z,5.22
2019-03-13T01:17:41.272Z,6.28
2019-03-13T01:20:09.911Z,6.05
2019-03-13T01:22:37.119Z,6.97
2019-03-13T01:25:06.890Z,8.45
2019-03-13T01:27:34.391Z,6.40
2019-03-13T01:30:02.733Z,6.97
2019-03-13T01:32:38.686Z,5.53
2019-03-13T01:35:09.240Z,5.80
2019-03-13T01:37:36.968Z,6.45
2019-03-13T01:40:07.297Z,5.70
2019-03-13T01:42:34.234Z,8.25
2019-03-13T01:45:09.788Z,5.60
2019-03-13T01:50:30.564Z,6.33
2019-03-13T01:53:03.471Z,5.55
2019-03-13T01:55:30.782Z,4.83
2019-03-13T01:57:58.327Z,5.35
2019-03-13T02:00:29.327Z,5.83
2019-03-13T02:02:57.488Z,6.20
2019-03-13T02:05:28.393Z,5.28
2019-03-13T02:07:55.192Z,6.17
2019-03-13T02:10:32.968Z,4.10
2019-03-13T02:13:03.165Z,4.50
2019-03-13T02:15:31.106Z,6.30
2019-03-13T02:18:00.151Z,4.33
2019-03-13T02:20:29.953Z,6.70
2019-03-13T02:22:57.541Z,6.12
2019-03-13T02:25:25.688Z,4.80
2019-03-13T02:27:54.407Z,4.15
2019-03-13T02:33:13.288Z,4.25
2019-03-13T02:35:44.212Z,4.40
2019-03-13T02:38:11.371Z,6.37
2019-03-13T02:40:38.529Z,4.70
2019-03-13T02:43:05.382Z,6.62
2019-03-13T02:45:32.034Z,8.43
2019-03-13T02:47:59.707Z,5.78
2019-03-13T02:50:27.789Z,5.58
2019-03-13T02:52:54.488Z,5.53
2019-03-13T02:55:21.240Z,5.80
2019-03-13T02:57:58.398Z,6.17
2019-03-13T03:00:48.474Z,6.55
2019-03-13T03:06:30.640Z,5.83
2019-03-13T03:12:29.956Z,5.70
2019-03-13T03:15:02.229Z,5.00
2019-03-13T03:20:19.312Z,5.55
2019-03-13T03:22:47.989Z,5.97
2019-03-13T03:25:19.805Z,5.03
2019-03-13T03:27:47.315Z,6.08
2019-03-13T03:30:25.538Z,5.10
2019-03-13T03:32:53.334Z,4.90
2019-03-13T03:35:23.515Z,7.42
2019-03-13T03:38:11.102Z,4.65
2019-03-13T03:40:40.966Z,5.00
2019-03-13T03:43:10.260Z,4.83
2019-03-13T03:45:38.855Z,5.58
2019-03-13T03:48:05.564Z,5.28
2019-03-13T03:53:37.738Z,4.70
2019-03-13T03:56:09.677Z,5.95
2019-03-13T03:58:40.754Z,4.58
2019-03-13T04:01:10.338Z,5.80
2019-03-13T04:03:44.901Z,4.00
2019-03-13T04:09:13.155Z,6.37
2019-03-13T04:17:45.601Z,6.65
2019-03-13T04:23:06.603Z,6.85
2019-03-13T04:25:34.217Z,10.25
2019-03-13T04:28:03.942Z,9.50
2019-03-13T04:30:30.957Z,9.13
2019-03-13T04:32:58.710Z,6.70
2019-03-13T04:38:17.322Z,7.15
2019-03-13T04:40:47.839Z,7.72
2019-03-13T04:43:27.440Z,8.65
2019-03-13T04:45:56.849Z,10.05
2019-03-13T04:48:28.982Z,10.38
2019-03-13T04:54:01.797Z,12.43
2019-03-13T04:56:28.659Z,12.03
2019-03-13T04:58:57.408Z,13.62
2019-03-13T05:04:25.812Z,12.65
2019-03-13T05:06:57.634Z,12.50
2019-03-13T05:09:30.954Z,11.18
2019-03-13T05:12:04.320Z,13.53
2019-03-13T05:14:33.323Z,14.28
2019-03-13T05:17:03.922Z,12.50
2019-03-13T05:25:09.806Z,18.15
2019-03-13T05:30:28.335Z,18.50
2019-03-13T05:39:18.868Z,14.65
2019-03-13T05:41:48.237Z,18.40
2019-03-13T05:44:30.908Z,20.05
2019-03-13T05:47:06.430Z,17.70
2019-03-13T05:49:34.698Z,14.80
2019-03-13T05:52:08.541Z,15.90
2019-03-13T05:54:35.107Z,17.40
2019-03-13T05:57:01.545Z,16.93
2019-03-13T05:59:28.001Z,15.78
2019-03-13T06:01:54.457Z,21.85
2019-03-13T06:04:20.917Z,15.48
2019-03-13T06:06:47.360Z,14.00
2019-03-13T06:09:13.792Z,18.32
2019-03-13T06:11:40.236Z,15.65
2019-03-13T06:14:06.692Z,24.45
2019-03-13T06:16:33.118Z,24.82
2019-03-13T06:18:59.597Z,18.77
2019-03-13T06:21:26.094Z,16.35
2019-03-13T06:23:52.515Z,18.92
2019-03-13T06:26:18.956Z,18.62
2019-03-13T06:28:45.619Z,20.90
2019-03-13T06:31:12.029Z,23.80
2019-03-13T06:33:38.483Z,26.85
2019-03-13T06:36:04.939Z,25.90
2019-03-13T06:38:31.407Z,24.98
2019-03-13T06:40:57.971Z,20.65
2019-03-13T06:43:24.411Z,23.80
2019-03-13T06:45:50.834Z,23.77
2019-03-13T06:48:17.277Z,25.77
2019-03-13T06:50:43.720Z,22.58
2019-03-13T06:53:10.197Z,26.07
2019-03-13T06:55:36.691Z,23.92
2019-03-13T06:58:03.249Z,18.85
2019-03-13T07:00:48.310Z,20.92
2019-03-13T07:03:19.679Z,22.67
2019-03-13T07:05:48.011Z,21.75
2019-03-13T07:08:19.063Z,24.65
2019-03-13T07:10:48.407Z,21.97
2019-03-13T07:13:25.800Z,23.45
2019-03-13T07:15:56.952Z,21.57
2019-03-13T07:18:34.407Z,20.62
2019-03-13T07:21:14.698Z,29.25
2019-03-13T07:23:43.055Z,25.12
2019-03-13T07:26:14.132Z,24.18
2019-03-13T07:28:42.484Z,26.48
2019-03-13T07:31:10.817Z,23.95
2019-03-13T07:33:50.960Z,22.30
2019-03-13T07:36:35.882Z,40.83
2019-03-13T07:39:21.999Z,29.40
2019-03-13T07:42:06.891Z,32.17
2019-03-13T07:44:38.223Z,61.20
2019-03-13T07:47:06.555Z,98.45
2019-03-13T07:49:40.931Z,107.52
2019-03-13T07:52:15.275Z,92.15
2019-03-13T07:54:55.440Z,85.92
2019-03-13T07:57:23.754Z,89.32
2019-03-13T08:00:07.350Z,93.12
2019-03-13T08:02:35.768Z,116.50
2019-03-13T08:05:11.518Z,136.68
2019-03-13T08:07:39.995Z,141.90
2019-03-13T08:10:11.160Z,162.32
2019-03-13T08:12:56.236Z,183.25
2019-03-13T08:15:24.985Z,172.02
2019-03-13T08:18:10.045Z,161.03
2019-03-13T08:20:54.967Z,121.92
2019-03-13T08:23:23.428Z,129.18
2019-03-13T08:25:57.642Z,121.92
2019-03-13T08:30:54.183Z,117.93
2019-03-13T08:33:22.720Z,94.85
2019-03-13T08:36:07.450Z,76.92
2019-03-13T08:38:38.822Z,65.10
2019-03-13T08:41:07.180Z,31.93
2019-03-13T08:43:38.526Z,26.10
2019-03-13T08:46:24.698Z,20.45
2019-03-13T08:48:53.039Z,18.73
2019-03-13T08:51:21.383Z,18.65
2019-03-13T08:54:06.209Z,21.02
2019-03-13T08:56:40.575Z,32.83
2019-03-13T08:59:25.262Z,25.10
2019-03-13T09:02:02.208Z,25.75
2019-03-13T09:04:30.569Z,24.30
2019-03-13T09:06:58.914Z,29.92
2019-03-13T09:09:36.174Z,44.13
2019-03-13T09:12:21.074Z,44.53
2019-03-13T09:14:55.498Z,42.17
2019-03-13T09:17:23.836Z,28.98
2019-03-13T09:19:52.175Z,31.33
2019-03-13T09:22:20.529Z,32.23
2019-03-13T09:24:54.392Z,20.95
2019-03-13T09:27:34.892Z,22.85
2019-03-13T09:30:19.812Z,20.45
2019-03-13T09:33:04.845Z,15.48
2019-03-13T09:35:42.196Z,11.85
2019-03-13T09:38:25.776Z,3.75
2019-03-13T09:40:54.046Z,3.22
2019-03-13T09:43:22.404Z,2.27
2019-03-13T09:45:53.767Z,3.85
2019-03-13T09:48:22.194Z,1.95
2019-03-13T09:50:50.526Z,1.42
2019-03-13T09:53:32.023Z,1.42
2019-03-13T09:56:12.252Z,2.20
2019-03-13T09:58:43.614Z,2.85
2019-03-13T10:01:14.674Z,3.62
2019-03-13T10:03:52.045Z,3.05
2019-03-13T10:06:22.364Z,2.45
2019-03-13T10:08:59.470Z,2.10
2019-03-13T10:11:44.210Z,1.67
2019-03-13T10:14:21.728Z,3.08
2019-03-13T10:17:10.427Z,2.75
2019-03-13T10:19:35.069Z,2.55
2019-03-13T10:22:06.309Z,1.80
2019-03-13T10:24:43.723Z,1.70
2019-03-13T10:27:27.174Z,1.40
2019-03-13T10:29:55.548Z,2.08
2019-03-13T10:32:26.602Z,1.12
2019-03-13T10:35:00.682Z,2.45
2019-03-13T10:37:45.657Z,1.50
2019-03-13T10:40:29.126Z,1.90
2019-03-13T10:43:15.368Z,4.55
2019-03-13T10:45:44.819Z,1.82
2019-03-13T10:48:25.226Z,3.98
2019-03-13T10:51:10.315Z,4.42
2019-03-13T10:53:47.726Z,1.60
2019-03-13T10:56:32.566Z,1.52
2019-03-13T10:59:07.079Z,3.62
2019-03-13T11:01:41.541Z,1.32
2019-03-13T11:04:09.889Z,2.00
2019-03-13T11:06:54.022Z,3.20
2019-03-13T11:09:17.088Z,2.27
2019-03-13T11:11:45.561Z,2.30
2019-03-13T11:14:19.624Z,1.32
2019-03-13T11:16:56.796Z,1.92
2019-03-13T11:19:25.146Z,2.33
2019-03-13T11:21:53.471Z,2.02
2019-03-13T11:24:38.279Z,1.07
2019-03-13T11:27:09.569Z,1.40
2019-03-13T11:29:49.854Z,2.33
2019-03-13T11:32:33.081Z,2.55
2019-03-13T11:35:18.199Z,2.62
2019-03-13T11:37:53.759Z,2.25
2019-03-13T11:40:24.861Z,5.55
2019-03-13T11:42:59.313Z,1.80
2019-03-13T11:45:33.658Z,3.62
2019-03-13T11:48:11.150Z,3.58
2019-03-13T11:50:48.538Z,2.20
2019-03-13T11:53:16.892Z,3.77
2019-03-13T11:55:54.072Z,2.90
2019-03-13T11:58:28.308Z,5.58
2019-03-13T12:03:36.930Z,7.47
2019-03-13T12:06:08.308Z,4.17
2019-03-13T12:08:53.053Z,2.90
2019-03-13T12:11:24.409Z,4.75
2019-03-13T12:13:55.678Z,2.17
2019-03-13T12:16:24.116Z,2.40
2019-03-13T12:18:52.420Z,3.12
2019-03-13T12:21:20.759Z,2.80
2019-03-13T12:23:58.084Z,2.17
2019-03-13T12:26:29.270Z,2.42
2019-03-13T12:29:03.536Z,2.55
2019-03-13T12:31:31.893Z,2.47
2019-03-13T12:34:09.111Z,3.08
2019-03-13T12:36:41.958Z,1.85
2019-03-13T12:39:13.390Z,1.50
2019-03-13T12:41:41.859Z,3.50
2019-03-13T12:44:16.195Z,2.27
2019-03-13T12:46:47.534Z,2.87
2019-03-13T12:49:18.902Z,2.45
2019-03-13T12:51:53.381Z,4.15
2019-03-13T12:54:33.880Z,2.58
2019-03-13T12:57:02.248Z,2.72
2019-03-13T12:59:30.572Z,2.33
2019-03-13T13:02:02.020Z,2.30
2019-03-13T13:04:39.492Z,2.37
2019-03-13T13:07:07.927Z,2.65
2019-03-13T13:09:36.267Z,2.30
2019-03-13T13:12:07.399Z,2.22
2019-03-13T13:14:52.681Z,3.08
2019-03-13T13:17:21.043Z,2.10
2019-03-13T13:19:47.484Z,1.40
2019-03-13T13:22:13.933Z,2.00
2019-03-13T13:24:40.378Z,1.65
2019-03-13T13:27:07.048Z,2.08
2019-03-13T13:29:34.010Z,1.67
2019-03-13T13:32:00.449Z,3.42
2019-03-13T13:34:26.878Z,2.47
2019-03-13T13:36:54.318Z,2.42
2019-03-13T13:39:20.785Z,3.47
2019-03-13T13:41:47.194Z,4.50
2019-03-13T13:44:13.647Z,3.92
2019-03-13T13:46:40.083Z,2.00
2019-03-13T13:49:06.645Z,2.85
2019-03-13T13:51:33.101Z,2.77
2019-03-13T13:53:59.695Z,3.58
2019-03-13T13:56:26.140Z,3.05
2019-03-13T13:58:52.590Z,4.42
2019-03-13T14:01:19.077Z,4.92
2019-03-13T14:03:45.511Z,2.22
2019-03-13T14:06:11.953Z,2.40
2019-03-13T14:08:38.431Z,3.35
2019-03-13T14:11:04.848Z,5.22
2019-03-13T14:13:31.311Z,2.90
2019-03-13T14:15:57.774Z,3.15
2019-03-13T14:18:25.206Z,3.25
2019-03-13T14:20:51.744Z,2.90
2019-03-13T14:23:18.178Z,2.83
2019-03-13T14:25:44.710Z,5.60
2019-03-13T14:28:11.133Z,5.20
2019-03-13T14:30:37.766Z,3.92
2019-03-13T14:33:04.182Z,4.58
2019-03-13T14:35:30.618Z,3.33
2019-03-13T14:37:57.144Z,2.12
2019-03-13T14:40:23.626Z,4.28
2019-03-13T14:42:50.049Z,2.20
2019-03-13T14:45:17.679Z,2.95
2019-03-13T14:47:44.159Z,2.72
2019-03-13T14:50:17.377Z,4.72
2019-03-13T14:52:43.927Z,5.55
2019-03-13T14:55:11.704Z,5.50
2019-03-13T14:57:38.163Z,7.40
2019-03-13T15:00:17.493Z,3.35
2019-03-13T15:02:44.234Z,3.95
2019-03-13T15:05:10.769Z,2.37
2019-03-13T15:07:37.333Z,3.25
2019-03-13T15:10:12.767Z,6.15
2019-03-13T15:12:39.369Z,3.47
2019-03-13T15:15:09.460Z,4.05
2019-03-13T15:17:35.914Z,3.95
2019-03-13T15:20:05.176Z,7.03
2019-03-13T15:22:31.727Z,6.65
2019-03-13T15:24:59.222Z,4.25
2019-03-13T15:27:25.652Z,6.87
2019-03-13T15:29:52.063Z,6.58
2019-03-13T15:32:18.517Z,2.67
2019-03-13T15:34:44.959Z,4.58
2019-03-13T15:37:11.401Z,3.33
2019-03-13T15:39:37.836Z,5.72
2019-03-13T15:42:04.423Z,6.28
2019-03-13T15:44:30.872Z,6.95
2019-03-13T15:46:57.377Z,4.35
2019-03-13T15:49:23.905Z,3.58
2019-03-13T15:54:42.580Z,2.92
2019-03-13T15:57:09.880Z,3.08
2019-03-13T15:59:36.347Z,2.80
2019-03-13T16:02:04.323Z,3.05
2019-03-13T16:04:30.768Z,5.03
2019-03-13T16:06:57.209Z,4.55
2019-03-13T16:09:23.651Z,5.03
2019-03-13T16:11:50.147Z,6.87
2019-03-13T16:14:16.577Z,3.92
2019-03-13T16:16:43.067Z,4.75
2019-03-13T16:19:09.520Z,3.65
2019-03-13T16:21:35.998Z,7.03
2019-03-13T16:24:02.557Z,4.65
2019-03-13T16:26:29.076Z,4.30
2019-03-13T16:28:55.674Z,3.77
2019-03-13T16:31:55.316Z,4.15
2019-03-13T17:11:56.775Z,7.55
2019-03-13T17:14:41.210Z,3.67
2019-03-13T17:17:16.394Z,5.00
2019-03-13T17:19:46.493Z,14.00
2019-03-13T17:37:06.921Z,5.85
2019-03-13T17:39:37.277Z,3.70
2019-03-13T17:42:04.460Z,3.27
2019-03-13T17:44:31.690Z,4.62
2019-03-13T17:47:03.698Z,3.67
2019-03-13T18:01:56.671Z,3.35
2019-03-13T18:04:24.984Z,3.90
2019-03-13T18:06:51.466Z,3.42
2019-03-13T18:09:19.258Z,4.15
2019-03-13T18:11:50.932Z,3.10
2019-03-13T18:20:31.443Z,8.58
2019-03-13T18:44:32.241Z,4.92
2019-03-13T19:39:39.743Z,6.90
2019-03-13T19:48:36.235Z,8.38
2019-03-13T19:54:36.543Z,6.65
2019-03-13T19:57:48.198Z,9.93
2019-03-13T20:13:08.394Z,7.75
2019-03-13T20:18:23.476Z,6.25
2019-03-13T20:36:16.409Z,6.60
2019-03-13T20:38:56.172Z,6.78
2019-03-13T20:44:27.212Z,8.98
2019-03-13T20:52:51.624Z,4.78
2019-03-13T20:55:20.382Z,5.45
2019-03-13T20:57:47.732Z,5.97
2019-03-13T21:00:26.984Z,5.80
2019-03-13T21:03:00.053Z,7.35
2019-03-13T21:08:29.714Z,6.83
2019-03-13T21:13:51.397Z,18.45
2019-03-13T21:16:37.953Z,10.70
2019-03-13T21:19:07.397Z,10.18
2019-03-13T21:27:55.285Z,10.43
2019-03-13T21:30:33.416Z,10.53
2019-03-13T21:33:03.025Z,8.25
2019-03-13T21:35:31.632Z,10.45
2019-03-13T21:38:04.366Z,11.83
2019-03-13T21:40:38.064Z,12.07
2019-03-13T21:43:05.649Z,10.53
2019-03-13T21:45:41.229Z,10.45
2019-03-13T21:48:05.177Z,12.00
2019-03-13T21:50:32.256Z,9.00
2019-03-13T21:53:01.107Z,10.35
2019-03-13T21:55:29.567Z,10.50
2019-03-13T21:57:58.399Z,9.98
2019-03-13T22:00:27.084Z,9.80
2019-03-13T22:02:55.589Z,11.65
2019-03-13T22:05:27.379Z,9.53
2019-03-13T22:07:54.305Z,9.75
2019-03-13T22:10:21.720Z,14.35
2019-03-13T22:12:51.031Z,11.08
2019-03-13T22:15:23.397Z,12.07
2019-03-13T22:17:54.925Z,10.60
2019-03-13T22:20:26.984Z,11.43
2019-03-13T22:22:56.723Z,10.10
2019-03-13T22:25:23.389Z,11.25
2019-03-13T22:27:49.959Z,11.48
2019-03-13T22:30:20.826Z,14.55
2019-03-13T22:32:51.541Z,13.50
2019-03-13T22:35:19.266Z,10.78
2019-03-13T22:37:46.158Z,11.15
2019-03-13T22:40:13.865Z,10.70
2019-03-13T22:42:41.421Z,11.55
2019-03-13T22:45:12.940Z,11.85
2019-03-13T22:47:43.043Z,10.15
2019-03-13T22:50:14.917Z,9.48
2019-03-13T22:52:42.597Z,11.30
2019-03-13T22:55:09.293Z,8.95
2019-03-13T22:57:37.883Z,9.15
2019-03-13T23:00:53.288Z,10.75
2019-03-13T23:03:24.875Z,9.15
2019-03-13T23:05:51.544Z,9.00
2019-03-13T23:08:18.315Z,10.55
2019-03-13T23:10:45.486Z,9.73
2019-03-13T23:13:17.229Z,9.05
2019-03-13T23:15:43.501Z,11.12
2019-03-13T23:18:12.393Z,26.33
2019-03-13T23:20:41.466Z,11.97
2019-03-13T23:23:12.293Z,11.28
2019-03-13T23:25:43.764Z,9.78
2019-03-13T23:28:14.153Z,9.08
2019-03-13T23:30:43.603Z,9.67
2019-03-13T23:33:11.238Z,7.28
2019-03-13T23:35:37.799Z,10.03
2019-03-13T23:38:04.349Z,7.12
2019-03-13T23:40:30.818Z,9.28
2019-03-13T23:43:00.298Z,9.00
2019-03-13T23:45:31.883Z,7.55
2019-03-13T23:48:00.502Z,8.30
2019-03-13T23:50:27.765Z,6.62
2019-03-13T23:52:55.126Z,7.78
2019-03-13T23:55:23.366Z,9.33
2019-03-13T23:57:50.259Z,8.70
